Latest Coastal Weather Observations for Newcastle Nobbys

IDN60701

Issued at 2:55 am EDT Sunday 26 October 2014 (issued every 10 minutes, with the page automatically refreshed every 10 minutes)

About coastal observations | Map of coastal stations | Coastal observations for NSW | Marine services | Other Formats
Station Details ID: 061055 Name: NEWCASTLE NOBBYS SIGNAL STATION AWS Lat: -32.92 Lon: 151.80 Height: 33.0 m
Data from the previous 72 hours. | See also: Recent months at Newcastle Nobbys
Date/Time
EDT
Temp

°C
Wind Pressure Rain
since 9am
mm
Weather Cloud Vis
km
Sea
Height
m
Swell
Dir
 
Speed
knots
Gust
knots
hPa Trend Height
m
Period
s
Dir
26/02:30am 19.1 NNE 7 8 - - 0.2 - - - - - - -
26/02:00am 19.2 E 7 8 - - 0.2 - - - - - - -
26/01:30am 19.5 S 8 9 - - 0.2 - - - - - - -
26/01:00am 19.6 SSW 12 17 - - 0.2 - - - - - - -
26/12:30am 19.5 SW 11 17 - - 0.2 - - - - - - -
26/12:00am 19.4 WSW 6 8 - - 0.2 - - - - - - -
 
Date/Time
EDT
Temp

°C
Wind Pressure Rain
since 9am
mm
Weather Cloud Vis
km
Sea
Height
m
Swell
Dir
 
Speed
knots
Gust
knots
hPa Trend Height
m
Period
s
Dir
25/11:30pm 19.2 SSW 5 8 - - 0.2 - - - - - - -
25/11:00pm 19.2 SSW 7 11 - - 0.2 - - - - - - -
25/10:30pm 19.2 SSW 4 6 - - 0.2 - - - - - - -
25/10:00pm 19.3 SSW 7 11 - - 0.2 - - - - - - -
25/09:30pm 19.4 SW 8 11 - - 0.2 - - - - - - -
25/09:00pm 19.4 E 12 14 - - 0.2 - - - - - - -
25/08:30pm 19.5 SSW 15 22 - - 0.2 - - - - - - -
25/08:28pm 19.5 SSW 15 22 - - 0.2 - - - - - - -
25/08:00pm 19.6 SSW 8 11 - - 0.2 - - - - - - -
25/07:30pm 19.6 S 9 11 - - 0.2 - - - - - - -
25/07:00pm 19.9 SSW 8 11 - - 0.2 - - - - - - -
25/06:30pm 20.3 SSW 9 11 - - 0.2 - - - - - - -
25/06:00pm 20.8 SSW 9 11 - - 0.2 - - - - - - -
25/05:30pm 21.1 SSW 7 9 - - 0.2 - - - - - - -
25/05:00pm 21.1 SSW 6 8 - - 0.2 - - - - - - -
25/04:30pm 21.4 S 9 11 - - 0.2 - - - - - - -
25/04:00pm 21.5 S 11 13 - - 0.2 - - - - - - -
25/03:30pm 21.1 S 13 15 - - 0.2 - - - - - - -
25/03:00pm 22.2 S 12 14 - - 0.2 - - - - - - -
25/02:30pm 22.2 S 10 13 - - 0.2 - - - - - - -
25/02:00pm 22.5 S 11 12 - - 0.2 - - - - - - -
25/01:30pm 22.7 S 11 12 - - 0.2 - - - - - - -
25/01:00pm 22.9 S 12 13 - - 0.2 - - - - - - -
25/12:30pm 23.9 S 11 13 - - 0.2 - - - - - - -
25/12:00pm 25.0 S 8 9 - - 0.2 - - - - - - -
25/11:30am 25.4 S 6 8 - - 0.2 - - - - - - -
25/11:00am 24.2 SSE 4 6 - - 0.2 - - - - - - -
25/10:30am 24.3 SE 3 4 - - 0.2 - - - - - - -
25/10:00am 23.1 SSE 3 4 - - 0.2 - - - - - - -
25/09:30am 22.1 S 3 4 - - 0.0 - - - - - - -
25/09:00am 22.9 S 4 5 - - 0.2 - - - - - - -
25/08:30am 22.0 SSW 3 5 - - 0.2 - - - - - - -
25/08:00am 20.7 WNW 4 5 - - 0.2 - - - - - - -
25/07:30am 19.5 WNW 4 5 - - 0.2 - - - - - - -
25/07:00am 18.8 NW 3 4 - - 0.2 - - - - - - -
25/06:30am 18.5 NW 3 4 - - 0.2 - - - - - - -
25/06:00am 18.4 NW 3 4 - - 0.2 - - - - - - -
25/05:30am 18.4 N 2 3 - - 0.2 - - - - - - -
25/05:00am 18.6 N 5 6 - - 0.2 - - - - - - -
25/04:30am 18.9 NNE 5 6 - - 0.2 - - - - - - -
25/04:00am 19.2 NNE 5 5 - - 0.2 - - - - - - -
25/03:30am 19.5 N 4 5 - - 0.2 - - - - - - -
25/03:00am 20.2 N 6 7 - - 0.2 - - - - - - -
25/02:30am 20.2 N 6 8 - - 0.2 - - - - - - -
25/02:00am 20.1 NNE 6 9 - - 0.2 - - - - - - -
25/01:30am 20.5 N 8 10 - - 0.2 - - - - - - -
25/01:00am 20.5 N 11 14 - - 0.2 - - - - - - -
25/12:30am 21.2 NNE 6 9 - - 0.2 - - - - - - -
25/12:00am 23.1 N 11 15 - - 0.2 Recent precip. - - - - - -
 
Date/Time
EDT
Temp

°C
Wind Pressure Rain
since 9am
mm
Weather Cloud Vis
km
Sea
Height
m
Swell
Dir
 
Speed
knots
Gust
knots
hPa Trend Height
m
Period
s
Dir
24/11:30pm 20.6 NE 11 16 - - 0.2 - - - - - - -
24/11:00pm 22.4 WNW 3 - - - 0.0 - - - - - - -
24/10:38pm 21.5 W 17 29 - - 0.0 - - - - - - -
24/10:34pm 20.9 W 16 25 - - 0.0 - - - - - - -
24/10:30pm 20.8 N 10 13 - - 0.0 - - - - - - -
24/10:00pm 20.8 NNE 9 13 - - 0.0 - - - - - - -
24/09:30pm 20.9 NE 8 12 - - 0.0 - - - - - - -
24/09:00pm 20.8 NE 8 12 - - 0.0 - - - - - - -
24/08:30pm 20.8 NE 10 13 - - 0.0 - - - - - - -
24/08:00pm 20.2 ENE 10 14 - - 0.0 - - - - - - -
24/07:30pm 21.1 NE 14 18 - - 0.0 - - - - - - -
24/07:00pm 21.4 ENE 15 18 - - 0.0 - - - - - - -
24/06:30pm 21.5 ENE 11 15 - - 0.0 - - - - - - -
24/06:00pm 21.7 ENE 12 15 - - 0.0 - - - - - - -
24/05:30pm 21.1 ENE 12 14 - - 0.0 - - - - - - -
24/05:00pm 22.0 E 12 14 - - 0.0 - - - - - - -
24/04:30pm 22.0 ENE 12 14 - - 0.0 - - - - - - -
24/04:00pm 21.6 ENE 11 13 - - 0.0 - - - - - - -
24/03:30pm 21.8 ENE 9 11 - - 0.0 - - - - - - -
24/03:00pm 21.7 E 11 13 - - 0.0 - - - - - - -
24/02:30pm 21.8 ENE 7 10 - - 0.0 - - - - - - -
24/02:00pm 21.4 ENE 7 10 - - 0.0 - - - - - - -
24/01:30pm 20.9 ENE 10 13 - - 0.0 - - - - - - -
24/01:00pm 20.2 E 11 14 - - 0.0 - - - - - - -
24/12:30pm 19.9 E 10 14 - - 0.0 - - - - - - -
24/12:00pm 20.7 E 6 7 - - 0.0 - - - - - - -
24/11:30am 22.4 E 5 6 - - 0.0 - - - - - - -
24/11:00am 22.9 NNE 4 5 - - 0.0 - - - - - - -
24/10:30am 22.2 NNW 6 8 - - 0.0 - - - - - - -
24/10:00am 20.1 NW 9 12 - - 0.0 - - - - - - -
24/09:30am 19.8 NNW 8 11 - - 0.0 - - - - - - -
24/09:00am 18.4 WNW 8 10 - - 0.0 - - - - - - -
24/08:30am 17.9 NNE 5 8 - - 0.0 - - - - - - -
24/08:00am 17.4 N 9 10 - - 0.0 - - - - - - -
24/07:30am 17.8 NNE 6 8 - - 0.0 - - - - - - -
24/07:00am 18.3 WNW 1 3 - - 0.0 - - - - - - -
24/06:30am 18.3 W 3 5 - - 0.0 - - - - - - -
24/06:00am 18.3 SW 7 11 - - 0.0 - - - - - - -
24/05:30am 18.3 SW 7 10 - - 0.0 - - - - - - -
24/05:00am 18.3 WSW 7 10 - - 0.0 - - - - - - -
24/04:30am 17.9 W 4 5 - - 0.0 - - - - - - -
24/04:00am 18.0 SW 3 4 - - 0.0 - - - - - - -
24/03:30am 17.8 SSW 6 8 - - 0.0 - - - - - - -
24/03:00am 17.8 SSW 7 9 - - 0.0 - - - - - - -
24/02:30am 18.1 SSW 5 7 - - 0.0 - - - - - - -
24/02:00am 18.1 SW 4 6 - - 0.0 - - - - - - -
24/01:30am 18.3 S 6 7 - - 0.0 - - - - - - -
24/01:00am 18.1 S 5 7 - - 0.0 - - - - - - -
24/12:30am 18.2 S 3 4 - - 0.0 - - - - - - -
24/12:00am 18.0 CALM 0 0 - - 0.0 - - - - - - -
 
Date/Time
EDT
Temp

°C
Wind Pressure Rain
since 9am
mm
Weather Cloud Vis
km
Sea
Height
m
Swell
Dir
 
Speed
knots
Gust
knots
hPa Trend Height
m
Period
s
Dir
23/11:30pm 18.3 E 2 3 - - 0.0 - - - - - - -
23/11:00pm 18.4 ENE 2 3 - - 0.0 - - - - - - -
23/10:30pm 18.6 NE 1 3 - - 0.0 - - - - - - -
23/10:00pm 18.6 ENE 5 7 - - 0.0 - - - - - - -
23/09:30pm 18.8 E 6 8 - - 0.0 - - - - - - -
23/09:00pm 18.9 E 6 7 - - 0.0 - - - - - - -
23/08:30pm 18.9 ENE 4 5 - - 0.0 - - - - - - -
23/08:00pm 18.9 E 3 5 - - 0.0 - - - - - - -
23/07:30pm 19.1 E 4 5 - - 0.0 - - - - - - -
23/07:00pm 19.4 E 8 10 - - 0.0 - - - - - - -
23/06:30pm 19.6 E 11 13 - - 0.0 - - - - - - -
23/06:00pm 19.8 E 12 15 - - 0.0 - - - - - - -
23/05:30pm 20.3 E 11 12 - - 0.0 - - - - - - -
23/05:00pm 20.6 E 9 11 - - 0.0 - - - - - - -
23/04:30pm 21.2 ENE 10 12 - - 0.0 - - - - - - -
23/04:00pm 21.4 E 10 12 - - 0.0 - - - - - - -
23/03:30pm 21.4 E 9 11 - - 0.0 - - - - - - -
23/03:00pm 21.9 E 8 10 - - 0.0 - - - - - - -
23/02:30pm 21.9 E 8 10 - - 0.0 - - - - - - -
23/02:00pm 22.2 E 8 9 - - 0.0 - - - - - - -
23/01:30pm 22.2 ENE 8 10 - - 0.0 - - - - - - -
23/01:00pm 22.1 ENE 8 11 - - 0.0 - - - - - - -
23/12:30pm 22.9 ENE 8 11 - - 0.0 - - - - - - -
23/12:00pm 24.0 N 7 10 - - 0.0 - - - - - - -
23/11:30am 25.7 N 6 8 - - 0.0 - - - - - - -
23/11:00am 23.5 N 7 10 - - 0.0 - - - - - - -
23/10:30am 22.4 N 7 10 - - 0.0 - - - - - - -
23/10:00am 21.3 N 7 10 - - 0.0 - - - - - - -
23/09:30am 20.4 NNW 8 10 - - 0.0 - - - - - - -
23/09:00am 18.4 NNW 8 11 - - 0.0 - - - - - - -
23/08:30am 17.1 NNW 8 10 - - 0.0 - - - - - - -
23/08:00am 15.6 NNW 7 11 - - 0.0 - - - - - - -
23/07:30am 14.7 N 7 9 - - 0.0 - - - - - - -
23/07:00am 14.6 N 7 9 - - 0.0 - - - - - - -
23/06:30am 14.1 N 6 7 - - 0.0 - - - - - - -
23/06:00am 14.4 N 7 8 - - 0.0 - - - - - - -
23/05:30am 14.6 N 5 7 - - 0.0 - - - - - - -
23/05:00am 15.2 N 7 8 - - 0.0 - - - - - - -
23/04:30am 15.4 N 7 8 - - 0.0 - - - - - - -
23/04:00am 15.3 N 6 8 - - 0.0 - - - - - - -
23/03:30am 15.7 N 6 7 - - 0.0 - - - - - - -
23/03:00am 15.9 N 4 5 - - 0.0 - - - - - - -

Other Formats:

Comma delimited format used in spreadsheet applications
http://www.bom.gov.au/fwo/IDN60701/IDN60701.94774.axf

JavaScript Object Notation format (JSON) in row-major order
http://www.bom.gov.au/fwo/IDN60701/IDN60701.94774.json